Downstream station:
SHEF ID: JOPM7 Shoal Creek above Joplin, MO
STATION TYPE:
Regulating: Stage = 10.00, Flow = 6333
PRECIP STAGE RIV-FLOW BAT-LOAD
in ft cfs volt
Ccp-Rev Ccp-Rev Ccp-Rev Ccp-Rev
(US/Central)
03/31 00:00 0.00 3.31 647 12.54
03/31 01:00 0.00 3.30 643 12.48
03/31 02:00 0.00 3.32 651 12.48
03/31 03:00 0.00 3.31 647 12.48
03/31 04:00 0.00 3.30 643 12.42
03/31 05:00 0.00 3.32 651 12.42
03/31 06:00 0.00 3.28 635 12.42
03/31 07:00 0.00 3.33 655 12.42
03/31 08:00 0.00 3.29 639 12.42
03/31 09:00 0.00 3.31 647 12.42
03/31 10:00 0.00 3.33 655 12.89
03/31 11:00 0.01 3.33 655 13.30
03/31 12:00 0.00 3.37 672 13.48
03/31 13:00 0.00 3.38 676 13.24
03/31 14:00 0.00 3.38 676 14.24
03/31 15:00 0.00 3.38 676 13.00
03/31 16:00 0.00 3.39 680 12.89
03/31 17:00 0.00 3.43 697 12.83
03/31 18:00 0.00 3.42 693 12.83
03/31 19:00 0.00 3.37 672 12.83
03/31 20:00 0.00 3.38 676 12.71
03/31 21:00 0.00 3.40 685 12.60
03/31 22:00 0.00 3.38 676 12.60
03/31 23:00 0.00 3.40 685 12.60